sensor_id;sensor_type;location;lat;lon;timestamp;temperature;humidity
31725;DHT22;18306;40.960;14.836;2024-03-02T00:00:52;7.50;80.00
31725;DHT22;18306;40.960;14.836;2024-03-02T00:03:19;7.50;80.20
31725;DHT22;18306;40.960;14.836;2024-03-02T00:05:50;7.30;80.40
31725;DHT22;18306;40.960;14.836;2024-03-02T00:08:25;7.10;81.10
31725;DHT22;18306;40.960;14.836;2024-03-02T00:11:00;7.20;81.00
31725;DHT22;18306;40.960;14.836;2024-03-02T00:13:31;7.20;81.50
31725;DHT22;18306;40.960;14.836;2024-03-02T00:16:05;7.30;81.50
31725;DHT22;18306;40.960;14.836;2024-03-02T00:18:33;7.30;80.80
31725;DHT22;18306;40.960;14.836;2024-03-02T00:21:06;7.30;80.30
31725;DHT22;18306;40.960;14.836;2024-03-02T00:23:38;7.50;79.30
31725;DHT22;18306;40.960;14.836;2024-03-02T00:26:18;7.40;79.40
31725;DHT22;18306;40.960;14.836;2024-03-02T00:28:45;7.50;79.70
31725;DHT22;18306;40.960;14.836;2024-03-02T00:31:14;7.60;79.50
31725;DHT22;18306;40.960;14.836;2024-03-02T00:33:46;7.60;79.30
31725;DHT22;18306;40.960;14.836;2024-03-02T00:36:22;7.80;79.10
31725;DHT22;18306;40.960;14.836;2024-03-02T00:38:50;7.80;78.70
31725;DHT22;18306;40.960;14.836;2024-03-02T00:41:30;7.90;78.60
31725;DHT22;18306;40.960;14.836;2024-03-02T00:44:04;7.90;78.50
31725;DHT22;18306;40.960;14.836;2024-03-02T00:46:37;7.90;78.60
31725;DHT22;18306;40.960;14.836;2024-03-02T00:49:06;7.90;79.00
31725;DHT22;18306;40.960;14.836;2024-03-02T00:51:39;7.90;79.10
31725;DHT22;18306;40.960;14.836;2024-03-02T00:54:08;7.90;79.80
31725;DHT22;18306;40.960;14.836;2024-03-02T00:56:36;7.90;80.10
31725;DHT22;18306;40.960;14.836;2024-03-02T00:59:03;7.90;80.20
31725;DHT22;18306;40.960;14.836;2024-03-02T01:01:30;8.00;80.50
31725;DHT22;18306;40.960;14.836;2024-03-02T01:03:57;8.00;80.50
31725;DHT22;18306;40.960;14.836;2024-03-02T01:06:24;8.20;80.00
31725;DHT22;18306;40.960;14.836;2024-03-02T01:08:51;8.20;79.70
31725;DHT22;18306;40.960;14.836;2024-03-02T01:11:18;8.20;79.60
31725;DHT22;18306;40.960;14.836;2024-03-02T01:13:45;8.20;79.60
31725;DHT22;18306;40.960;14.836;2024-03-02T01:16:15;8.20;79.90
31725;DHT22;18306;40.960;14.836;2024-03-02T01:18:42;8.10;79.60
31725;DHT22;18306;40.960;14.836;2024-03-02T01:21:09;8.10;79.70
31725;DHT22;18306;40.960;14.836;2024-03-02T01:23:37;8.20;79.90
31725;DHT22;18306;40.960;14.836;2024-03-02T01:26:04;8.20;80.20
31725;DHT22;18306;40.960;14.836;2024-03-02T01:28:32;8.20;80.20
31725;DHT22;18306;40.960;14.836;2024-03-02T01:30:59;8.30;80.60
31725;DHT22;18306;40.960;14.836;2024-03-02T01:33:26;8.20;80.40
31725;DHT22;18306;40.960;14.836;2024-03-02T01:35:53;8.20;81.10
31725;DHT22;18306;40.960;14.836;2024-03-02T01:38:20;8.20;80.80
31725;DHT22;18306;40.960;14.836;2024-03-02T01:40:47;8.10;81.30
31725;DHT22;18306;40.960;14.836;2024-03-02T01:43:14;8.10;81.80
31725;DHT22;18306;40.960;14.836;2024-03-02T01:45:41;8.10;82.00
31725;DHT22;18306;40.960;14.836;2024-03-02T01:48:08;8.20;82.40
31725;DHT22;18306;40.960;14.836;2024-03-02T01:50:36;8.40;82.10
31725;DHT22;18306;40.960;14.836;2024-03-02T01:53:03;8.50;81.80
31725;DHT22;18306;40.960;14.836;2024-03-02T01:55:31;8.60;81.60
31725;DHT22;18306;40.960;14.836;2024-03-02T01:57:58;8.60;81.30
31725;DHT22;18306;40.960;14.836;2024-03-02T02:00:25;8.60;81.60
31725;DHT22;18306;40.960;14.836;2024-03-02T02:02:53;8.60;82.10
31725;DHT22;18306;40.960;14.836;2024-03-02T02:05:21;8.70;81.40
31725;DHT22;18306;40.960;14.836;2024-03-02T02:07:48;8.60;81.40
31725;DHT22;18306;40.960;14.836;2024-03-02T02:10:15;8.60;81.80
31725;DHT22;18306;40.960;14.836;2024-03-02T02:12:43;8.60;81.40
31725;DHT22;18306;40.960;14.836;2024-03-02T02:15:29;8.60;81.50
31725;DHT22;18306;40.960;14.836;2024-03-02T02:17:57;8.60;81.50
31725;DHT22;18306;40.960;14.836;2024-03-02T02:20:25;8.60;81.40
31725;DHT22;18306;40.960;14.836;2024-03-02T02:23:10;8.60;81.50
31725;DHT22;18306;40.960;14.836;2024-03-02T02:25:37;8.60;82.10
31725;DHT22;18306;40.960;14.836;2024-03-02T02:28:04;8.70;82.00
31725;DHT22;18306;40.960;14.836;2024-03-02T02:30:32;8.80;81.60
31725;DHT22;18306;40.960;14.836;2024-03-02T02:32:59;8.80;81.30
31725;DHT22;18306;40.960;14.836;2024-03-02T02:35:26;8.60;81.60
31725;DHT22;18306;40.960;14.836;2024-03-02T02:37:55;8.60;81.30
31725;DHT22;18306;40.960;14.836;2024-03-02T02:40:22;8.60;80.80
31725;DHT22;18306;40.960;14.836;2024-03-02T02:42:49;8.40;81.20
31725;DHT22;18306;40.960;14.836;2024-03-02T02:45:18;8.30;81.70
31725;DHT22;18306;40.960;14.836;2024-03-02T02:47:45;8.30;81.70
31725;DHT22;18306;40.960;14.836;2024-03-02T02:50:12;8.20;82.40
31725;DHT22;18306;40.960;14.836;2024-03-02T02:52:41;8.30;82.20
31725;DHT22;18306;40.960;14.836;2024-03-02T02:55:10;8.30;81.10
31725;DHT22;18306;40.960;14.836;2024-03-02T02:57:38;8.30;81.10
31725;DHT22;18306;40.960;14.836;2024-03-02T03:02:37;8.30;81.30
31725;DHT22;18306;40.960;14.836;2024-03-02T03:05:06;8.30;81.40
31725;DHT22;18306;40.960;14.836;2024-03-02T03:07:33;8.10;82.20
31725;DHT22;18306;40.960;14.836;2024-03-02T03:10:02;8.10;82.30
31725;DHT22;18306;40.960;14.836;2024-03-02T03:12:30;8.10;80.80
31725;DHT22;18306;40.960;14.836;2024-03-02T03:15:00;8.10;82.00
31725;DHT22;18306;40.960;14.836;2024-03-02T03:17:27;8.10;81.80
31725;DHT22;18306;40.960;14.836;2024-03-02T03:19:55;8.00;81.70
31725;DHT22;18306;40.960;14.836;2024-03-02T03:22:22;7.90;82.40
31725;DHT22;18306;40.960;14.836;2024-03-02T03:24:49;8.00;82.40
31725;DHT22;18306;40.960;14.836;2024-03-02T03:27:16;8.00;82.20
31725;DHT22;18306;40.960;14.836;2024-03-02T03:29:43;8.10;82.10
31725;DHT22;18306;40.960;14.836;2024-03-02T03:32:10;8.20;81.90
31725;DHT22;18306;40.960;14.836;2024-03-02T03:34:37;8.20;82.60
31725;DHT22;18306;40.960;14.836;2024-03-02T03:37:04;8.10;83.00
31725;DHT22;18306;40.960;14.836;2024-03-02T03:39:44;8.10;83.40
31725;DHT22;18306;40.960;14.836;2024-03-02T03:42:16;8.30;83.00
31725;DHT22;18306;40.960;14.836;2024-03-02T03:44:43;8.30;82.80
31725;DHT22;18306;40.960;14.836;2024-03-02T03:47:10;8.40;82.50
31725;DHT22;18306;40.960;14.836;2024-03-02T03:49:37;8.50;82.60
31725;DHT22;18306;40.960;14.836;2024-03-02T03:52:04;8.50;82.90
31725;DHT22;18306;40.960;14.836;2024-03-02T03:54:31;8.50;82.20
31725;DHT22;18306;40.960;14.836;2024-03-02T03:56:58;8.50;82.50
31725;DHT22;18306;40.960;14.836;2024-03-02T03:59:25;8.60;82.20
31725;DHT22;18306;40.960;14.836;2024-03-02T04:01:52;8.60;81.90
31725;DHT22;18306;40.960;14.836;2024-03-02T04:04:20;8.50;82.00
31725;DHT22;18306;40.960;14.836;2024-03-02T04:06:47;8.40;82.50
31725;DHT22;18306;40.960;14.836;2024-03-02T04:09:14;8.50;82.30
31725;DHT22;18306;40.960;14.836;2024-03-02T04:11:41;8.50;82.90
31725;DHT22;18306;40.960;14.836;2024-03-02T04:14:08;8.50;82.50
31725;DHT22;18306;40.960;14.836;2024-03-02T04:16:35;8.60;81.90
31725;DHT22;18306;40.960;14.836;2024-03-02T04:19:02;8.60;81.90
31725;DHT22;18306;40.960;14.836;2024-03-02T04:21:30;8.60;82.00
31725;DHT22;18306;40.960;14.836;2024-03-02T04:23:57;8.50;82.20
31725;DHT22;18306;40.960;14.836;2024-03-02T04:26:26;8.60;82.30
31725;DHT22;18306;40.960;14.836;2024-03-02T04:28:53;8.50;82.30
31725;DHT22;18306;40.960;14.836;2024-03-02T04:31:20;8.50;82.60
31725;DHT22;18306;40.960;14.836;2024-03-02T04:33:48;8.50;82.40
31725;DHT22;18306;40.960;14.836;2024-03-02T04:36:15;8.40;82.60
31725;DHT22;18306;40.960;14.836;2024-03-02T04:38:42;8.50;82.80
31725;DHT22;18306;40.960;14.836;2024-03-02T04:41:09;8.40;83.60
31725;DHT22;18306;40.960;14.836;2024-03-02T04:43:36;8.40;83.90
31725;DHT22;18306;40.960;14.836;2024-03-02T04:46:03;8.50;84.00
31725;DHT22;18306;40.960;14.836;2024-03-02T04:48:30;8.60;83.00
31725;DHT22;18306;40.960;14.836;2024-03-02T04:50:57;8.60;83.00
31725;DHT22;18306;40.960;14.836;2024-03-02T04:53:24;8.60;82.90
31725;DHT22;18306;40.960;14.836;2024-03-02T04:55:51;8.60;82.60
31725;DHT22;18306;40.960;14.836;2024-03-02T04:58:44;8.60;82.30
31725;DHT22;18306;40.960;14.836;2024-03-02T05:01:11;8.60;81.80
31725;DHT22;18306;40.960;14.836;2024-03-02T05:03:40;8.50;81.80
31725;DHT22;18306;40.960;14.836;2024-03-02T05:10:49;8.40;82.50
31725;DHT22;18306;40.960;14.836;2024-03-02T05:13:16;8.40;82.10
31725;DHT22;18306;40.960;14.836;2024-03-02T05:15:44;8.30;81.90
31725;DHT22;18306;40.960;14.836;2024-03-02T05:18:11;8.30;82.10
31725;DHT22;18306;40.960;14.836;2024-03-02T05:20:39;8.20;82.70
31725;DHT22;18306;40.960;14.836;2024-03-02T05:23:05;8.20;82.90
31725;DHT22;18306;40.960;14.836;2024-03-02T05:25:33;8.20;82.70
31725;DHT22;18306;40.960;14.836;2024-03-02T05:28:01;8.20;82.60
31725;DHT22;18306;40.960;14.836;2024-03-02T05:30:29;8.20;82.60
31725;DHT22;18306;40.960;14.836;2024-03-02T05:32:56;8.10;83.00
31725;DHT22;18306;40.960;14.836;2024-03-02T05:35:23;8.20;82.10
31725;DHT22;18306;40.960;14.836;2024-03-02T05:37:50;8.20;81.80
31725;DHT22;18306;40.960;14.836;2024-03-02T05:40:17;8.20;81.90
31725;DHT22;18306;40.960;14.836;2024-03-02T05:42:44;8.20;81.90
31725;DHT22;18306;40.960;14.836;2024-03-02T05:45:11;8.10;82.30
31725;DHT22;18306;40.960;14.836;2024-03-02T05:47:39;8.20;82.70
31725;DHT22;18306;40.960;14.836;2024-03-02T05:50:06;8.20;82.70
31725;DHT22;18306;40.960;14.836;2024-03-02T05:52:33;8.30;82.60
31725;DHT22;18306;40.960;14.836;2024-03-02T05:55:01;8.30;82.20
31725;DHT22;18306;40.960;14.836;2024-03-02T05:57:28;8.40;82.20
31725;DHT22;18306;40.960;14.836;2024-03-02T06:00:15;8.40;82.50
31725;DHT22;18306;40.960;14.836;2024-03-02T06:02:43;8.40;82.40
31725;DHT22;18306;40.960;14.836;2024-03-02T06:05:12;8.40;82.80
31725;DHT22;18306;40.960;14.836;2024-03-02T06:07:39;8.40;83.20
31725;DHT22;18306;40.960;14.836;2024-03-02T06:10:06;8.30;83.60
31725;DHT22;18306;40.960;14.836;2024-03-02T06:12:35;8.60;83.10
31725;DHT22;18306;40.960;14.836;2024-03-02T06:15:02;8.70;82.40
31725;DHT22;18306;40.960;14.836;2024-03-02T06:17:30;8.80;82.30
31725;DHT22;18306;40.960;14.836;2024-03-02T06:19:57;8.70;82.70
31725;DHT22;18306;40.960;14.836;2024-03-02T06:26:01;8.80;82.80
31725;DHT22;18306;40.960;14.836;2024-03-02T06:28:29;8.90;82.90
31725;DHT22;18306;40.960;14.836;2024-03-02T06:30:55;8.90;82.90
31725;DHT22;18306;40.960;14.836;2024-03-02T06:33:22;8.90;83.10
31725;DHT22;18306;40.960;14.836;2024-03-02T06:35:49;8.90;83.20
31725;DHT22;18306;40.960;14.836;2024-03-02T06:38:16;8.90;83.20
31725;DHT22;18306;40.960;14.836;2024-03-02T06:40:43;8.90;83.30
31725;DHT22;18306;40.960;14.836;2024-03-02T06:43:10;8.90;83.70
31725;DHT22;18306;40.960;14.836;2024-03-02T06:45:59;8.70;83.80
31725;DHT22;18306;40.960;14.836;2024-03-02T06:53:21;8.80;84.50
31725;DHT22;18306;40.960;14.836;2024-03-02T06:55:49;8.90;84.00
31725;DHT22;18306;40.960;14.836;2024-03-02T06:58:16;9.00;83.70
31725;DHT22;18306;40.960;14.836;2024-03-02T07:00:43;9.20;83.30
31725;DHT22;18306;40.960;14.836;2024-03-02T07:03:15;9.30;83.20
31725;DHT22;18306;40.960;14.836;2024-03-02T07:05:42;9.20;83.70
31725;DHT22;18306;40.960;14.836;2024-03-02T07:08:09;9.20;84.30
31725;DHT22;18306;40.960;14.836;2024-03-02T07:10:40;9.40;84.20
31725;DHT22;18306;40.960;14.836;2024-03-02T07:13:07;9.40;84.20
31725;DHT22;18306;40.960;14.836;2024-03-02T07:15:37;9.50;84.50
31725;DHT22;18306;40.960;14.836;2024-03-02T07:18:23;9.50;84.00
31725;DHT22;18306;40.960;14.836;2024-03-02T07:20:52;9.70;83.40
31725;DHT22;18306;40.960;14.836;2024-03-02T07:23:18;9.60;83.60
31725;DHT22;18306;40.960;14.836;2024-03-02T07:25:48;9.70;83.40
31725;DHT22;18306;40.960;14.836;2024-03-02T07:28:16;9.70;83.40
31725;DHT22;18306;40.960;14.836;2024-03-02T07:30:46;9.70;84.10
31725;DHT22;18306;40.960;14.836;2024-03-02T07:33:27;9.60;84.50
31725;DHT22;18306;40.960;14.836;2024-03-02T07:35:57;9.70;84.40
31725;DHT22;18306;40.960;14.836;2024-03-02T07:38:27;9.70;84.50
31725;DHT22;18306;40.960;14.836;2024-03-02T07:40:55;9.80;84.60
31725;DHT22;18306;40.960;14.836;2024-03-02T07:43:22;9.80;85.10
31725;DHT22;18306;40.960;14.836;2024-03-02T07:45:49;9.90;85.00
31725;DHT22;18306;40.960;14.836;2024-03-02T07:48:23;10.10;84.20
31725;DHT22;18306;40.960;14.836;2024-03-02T07:50:53;10.30;83.70
31725;DHT22;18306;40.960;14.836;2024-03-02T07:53:20;10.50;82.70
31725;DHT22;18306;40.960;14.836;2024-03-02T07:55:47;10.50;82.60
31725;DHT22;18306;40.960;14.836;2024-03-02T07:58:14;10.60;81.90
31725;DHT22;18306;40.960;14.836;2024-03-02T08:00:41;10.70;81.80
31725;DHT22;18306;40.960;14.836;2024-03-02T08:03:09;10.80;81.40
31725;DHT22;18306;40.960;14.836;2024-03-02T08:05:38;10.90;81.40
31725;DHT22;18306;40.960;14.836;2024-03-02T08:08:05;10.90;81.50
31725;DHT22;18306;40.960;14.836;2024-03-02T08:10:32;11.10;81.60
31725;DHT22;18306;40.960;14.836;2024-03-02T08:13:00;11.30;80.80
31725;DHT22;18306;40.960;14.836;2024-03-02T08:15:27;11.50;80.20
31725;DHT22;18306;40.960;14.836;2024-03-02T08:17:54;11.40;80.40
31725;DHT22;18306;40.960;14.836;2024-03-02T08:20:21;11.40;79.70
31725;DHT22;18306;40.960;14.836;2024-03-02T08:22:48;11.40;81.70
31725;DHT22;18306;40.960;14.836;2024-03-02T08:25:15;11.50;81.60
31725;DHT22;18306;40.960;14.836;2024-03-02T08:27:43;11.50;81.80
31725;DHT22;18306;40.960;14.836;2024-03-02T08:30:12;11.50;82.00
31725;DHT22;18306;40.960;14.836;2024-03-02T08:32:39;11.60;82.50
31725;DHT22;18306;40.960;14.836;2024-03-02T08:35:07;11.70;81.90
31725;DHT22;18306;40.960;14.836;2024-03-02T08:37:34;11.80;81.70
31725;DHT22;18306;40.960;14.836;2024-03-02T08:40:01;11.90;81.20
31725;DHT22;18306;40.960;14.836;2024-03-02T08:42:30;12.00;81.40
31725;DHT22;18306;40.960;14.836;2024-03-02T08:44:57;12.10;81.40
31725;DHT22;18306;40.960;14.836;2024-03-02T08:47:24;12.10;81.00
31725;DHT22;18306;40.960;14.836;2024-03-02T08:49:51;12.20;80.80
31725;DHT22;18306;40.960;14.836;2024-03-02T08:52:19;12.30;80.20
31725;DHT22;18306;40.960;14.836;2024-03-02T08:54:48;12.20;80.30
31725;DHT22;18306;40.960;14.836;2024-03-02T08:57:17;12.30;80.10
31725;DHT22;18306;40.960;14.836;2024-03-02T08:59:45;12.50;79.70
31725;DHT22;18306;40.960;14.836;2024-03-02T09:02:12;12.70;79.10
31725;DHT22;18306;40.960;14.836;2024-03-02T09:04:39;12.80;78.70
31725;DHT22;18306;40.960;14.836;2024-03-02T09:07:08;12.80;78.60
31725;DHT22;18306;40.960;14.836;2024-03-02T09:09:35;12.70;78.80
31725;DHT22;18306;40.960;14.836;2024-03-02T09:12:06;12.70;78.80
31725;DHT22;18306;40.960;14.836;2024-03-02T09:14:35;12.80;78.70
31725;DHT22;18306;40.960;14.836;2024-03-02T09:17:04;12.80;78.30
31725;DHT22;18306;40.960;14.836;2024-03-02T09:19:32;12.90;78.30
31725;DHT22;18306;40.960;14.836;2024-03-02T09:21:59;12.80;77.80
31725;DHT22;18306;40.960;14.836;2024-03-02T09:24:28;12.80;78.30
31725;DHT22;18306;40.960;14.836;2024-03-02T09:26:55;12.80;77.90
31725;DHT22;18306;40.960;14.836;2024-03-02T09:29:22;12.90;77.60
31725;DHT22;18306;40.960;14.836;2024-03-02T09:31:49;13.00;78.00
31725;DHT22;18306;40.960;14.836;2024-03-02T09:34:17;13.10;77.30
31725;DHT22;18306;40.960;14.836;2024-03-02T09:36:44;13.00;77.30
31725;DHT22;18306;40.960;14.836;2024-03-02T09:39:11;13.10;77.80
31725;DHT22;18306;40.960;14.836;2024-03-02T09:41:38;13.20;77.20
31725;DHT22;18306;40.960;14.836;2024-03-02T09:44:06;13.30;76.50
31725;DHT22;18306;40.960;14.836;2024-03-02T09:46:33;13.30;76.20
31725;DHT22;18306;40.960;14.836;2024-03-02T09:49:00;13.40;76.20
31725;DHT22;18306;40.960;14.836;2024-03-02T09:51:27;13.50;75.90
31725;DHT22;18306;40.960;14.836;2024-03-02T09:53:55;13.50;75.40
31725;DHT22;18306;40.960;14.836;2024-03-02T09:56:23;13.50;75.80
31725;DHT22;18306;40.960;14.836;2024-03-02T09:58:51;13.50;75.80
31725;DHT22;18306;40.960;14.836;2024-03-02T10:01:18;13.40;75.90
31725;DHT22;18306;40.960;14.836;2024-03-02T10:03:46;13.30;76.60
31725;DHT22;18306;40.960;14.836;2024-03-02T10:06:25;13.20;77.10
31725;DHT22;18306;40.960;14.836;2024-03-02T10:08:55;13.10;78.10
31725;DHT22;18306;40.960;14.836;2024-03-02T10:11:34;13.00;79.00
31725;DHT22;18306;40.960;14.836;2024-03-02T10:14:14;12.90;79.80
31725;DHT22;18306;40.960;14.836;2024-03-02T10:16:44;12.90;80.40
31725;DHT22;18306;40.960;14.836;2024-03-02T10:19:22;12.80;81.40
31725;DHT22;18306;40.960;14.836;2024-03-02T10:21:53;12.90;80.90
31725;DHT22;18306;40.960;14.836;2024-03-02T10:24:22;12.70;81.80
31725;DHT22;18306;40.960;14.836;2024-03-02T10:26:50;12.70;82.60
31725;DHT22;18306;40.960;14.836;2024-03-02T10:29:17;12.60;84.00
31725;DHT22;18306;40.960;14.836;2024-03-02T10:31:45;12.60;84.20
31725;DHT22;18306;40.960;14.836;2024-03-02T10:34:13;12.60;83.70
31725;DHT22;18306;40.960;14.836;2024-03-02T10:36:43;12.60;85.00
31725;DHT22;18306;40.960;14.836;2024-03-02T10:39:15;12.80;84.40
31725;DHT22;18306;40.960;14.836;2024-03-02T10:41:44;12.70;84.00
31725;DHT22;18306;40.960;14.836;2024-03-02T10:44:12;12.70;84.40
31725;DHT22;18306;40.960;14.836;2024-03-02T10:46:40;12.70;83.80
31725;DHT22;18306;40.960;14.836;2024-03-02T10:49:07;12.70;83.70
31725;DHT22;18306;40.960;14.836;2024-03-02T10:51:35;12.80;84.20
31725;DHT22;18306;40.960;14.836;2024-03-02T10:54:05;12.70;84.20
31725;DHT22;18306;40.960;14.836;2024-03-02T10:56:34;12.70;84.20
31725;DHT22;18306;40.960;14.836;2024-03-02T10:59:33;12.60;84.00
31725;DHT22;18306;40.960;14.836;2024-03-02T11:02:01;12.60;84.10
31725;DHT22;18306;40.960;14.836;2024-03-02T11:04:30;12.60;84.20
31725;DHT22;18306;40.960;14.836;2024-03-02T11:07:07;12.50;84.10
31725;DHT22;18306;40.960;14.836;2024-03-02T11:09:35;12.50;84.50
31725;DHT22;18306;40.960;14.836;2024-03-02T11:14:44;12.50;84.90
31725;DHT22;18306;40.960;14.836;2024-03-02T11:17:11;12.60;84.30
31725;DHT22;18306;40.960;14.836;2024-03-02T11:19:40;12.70;83.90
31725;DHT22;18306;40.960;14.836;2024-03-02T11:22:09;12.70;83.60
31725;DHT22;18306;40.960;14.836;2024-03-02T11:24:36;12.80;83.80
31725;DHT22;18306;40.960;14.836;2024-03-02T11:27:05;12.80;83.40
31725;DHT22;18306;40.960;14.836;2024-03-02T11:32:03;12.90;82.80
31725;DHT22;18306;40.960;14.836;2024-03-02T11:34:35;12.90;82.70
31725;DHT22;18306;40.960;14.836;2024-03-02T11:37:03;12.90;82.10
31725;DHT22;18306;40.960;14.836;2024-03-02T11:39:30;13.00;82.40
31725;DHT22;18306;40.960;14.836;2024-03-02T11:41:58;13.00;81.90
31725;DHT22;18306;40.960;14.836;2024-03-02T11:44:28;12.90;81.80
31725;DHT22;18306;40.960;14.836;2024-03-02T11:47:05;13.00;81.80
31725;DHT22;18306;40.960;14.836;2024-03-02T11:49:39;13.00;81.40
31725;DHT22;18306;40.960;14.836;2024-03-02T11:52:08;13.10;80.70
31725;DHT22;18306;40.960;14.836;2024-03-02T11:54:43;13.10;80.50
31725;DHT22;18306;40.960;14.836;2024-03-02T11:57:15;13.10;80.40
31725;DHT22;18306;40.960;14.836;2024-03-02T11:59:43;13.10;80.50
31725;DHT22;18306;40.960;14.836;2024-03-02T12:02:18;12.90;80.60
31725;DHT22;18306;40.960;14.836;2024-03-02T12:04:46;13.00;80.90
31725;DHT22;18306;40.960;14.836;2024-03-02T12:07:21;13.00;80.50
31725;DHT22;18306;40.960;14.836;2024-03-02T12:09:59;13.00;80.50
31725;DHT22;18306;40.960;14.836;2024-03-02T12:12:27;12.90;80.60
31725;DHT22;18306;40.960;14.836;2024-03-02T12:14:55;12.90;81.00
31725;DHT22;18306;40.960;14.836;2024-03-02T12:17:22;13.00;80.70
31725;DHT22;18306;40.960;14.836;2024-03-02T12:19:49;13.00;80.60
31725;DHT22;18306;40.960;14.836;2024-03-02T12:22:16;12.90;80.70
31725;DHT22;18306;40.960;14.836;2024-03-02T12:24:44;12.90;81.10
31725;DHT22;18306;40.960;14.836;2024-03-02T12:27:15;13.10;80.90
31725;DHT22;18306;40.960;14.836;2024-03-02T12:29:43;13.10;80.80
31725;DHT22;18306;40.960;14.836;2024-03-02T12:32:12;13.20;80.40
31725;DHT22;18306;40.960;14.836;2024-03-02T12:34:42;13.20;80.30
31725;DHT22;18306;40.960;14.836;2024-03-02T12:37:12;13.10;80.20
31725;DHT22;18306;40.960;14.836;2024-03-02T12:39:45;13.00;80.90
31725;DHT22;18306;40.960;14.836;2024-03-02T12:42:13;13.10;81.20
31725;DHT22;18306;40.960;14.836;2024-03-02T12:44:40;13.10;81.30
31725;DHT22;18306;40.960;14.836;2024-03-02T12:47:08;13.20;80.60
31725;DHT22;18306;40.960;14.836;2024-03-02T12:49:36;13.30;79.80
31725;DHT22;18306;40.960;14.836;2024-03-02T12:52:04;13.40;79.40
31725;DHT22;18306;40.960;14.836;2024-03-02T12:54:32;13.40;78.60
31725;DHT22;18306;40.960;14.836;2024-03-02T12:57:00;13.30;78.70
31725;DHT22;18306;40.960;14.836;2024-03-02T12:59:27;13.40;78.50
31725;DHT22;18306;40.960;14.836;2024-03-02T13:01:55;13.40;78.60
31725;DHT22;18306;40.960;14.836;2024-03-02T13:04:28;13.40;78.60
31725;DHT22;18306;40.960;14.836;2024-03-02T13:06:55;13.40;78.40
31725;DHT22;18306;40.960;14.836;2024-03-02T13:09:24;13.50;78.50
31725;DHT22;18306;40.960;14.836;2024-03-02T13:11:52;13.60;78.10
31725;DHT22;18306;40.960;14.836;2024-03-02T13:14:22;13.60;78.10
31725;DHT22;18306;40.960;14.836;2024-03-02T13:16:52;13.60;78.70
31725;DHT22;18306;40.960;14.836;2024-03-02T13:19:23;13.60;78.70
31725;DHT22;18306;40.960;14.836;2024-03-02T13:21:50;13.70;78.80
31725;DHT22;18306;40.960;14.836;2024-03-02T13:24:18;13.80;77.80
31725;DHT22;18306;40.960;14.836;2024-03-02T13:26:46;13.80;77.70
31725;DHT22;18306;40.960;14.836;2024-03-02T13:29:13;13.90;77.50
31725;DHT22;18306;40.960;14.836;2024-03-02T13:31:40;14.00;77.30
31725;DHT22;18306;40.960;14.836;2024-03-02T13:34:07;13.90;77.10
31725;DHT22;18306;40.960;14.836;2024-03-02T13:36:35;13.90;76.40
31725;DHT22;18306;40.960;14.836;2024-03-02T13:39:03;13.80;76.60
31725;DHT22;18306;40.960;14.836;2024-03-02T13:41:32;13.70;76.90
31725;DHT22;18306;40.960;14.836;2024-03-02T13:43:59;13.70;77.10
31725;DHT22;18306;40.960;14.836;2024-03-02T13:46:28;13.60;77.40
31725;DHT22;18306;40.960;14.836;2024-03-02T13:49:22;13.60;77.80
31725;DHT22;18306;40.960;14.836;2024-03-02T13:51:49;13.50;78.30
31725;DHT22;18306;40.960;14.836;2024-03-02T13:54:17;13.50;78.70
31725;DHT22;18306;40.960;14.836;2024-03-02T13:56:50;13.40;79.20
31725;DHT22;18306;40.960;14.836;2024-03-02T13:59:18;13.40;79.70
31725;DHT22;18306;40.960;14.836;2024-03-02T14:01:45;13.50;79.70
31725;DHT22;18306;40.960;14.836;2024-03-02T14:04:12;13.50;79.70
31725;DHT22;18306;40.960;14.836;2024-03-02T14:06:39;13.60;79.40
31725;DHT22;18306;40.960;14.836;2024-03-02T14:09:06;13.60;79.10
31725;DHT22;18306;40.960;14.836;2024-03-02T14:11:33;13.50;79.00
31725;DHT22;18306;40.960;14.836;2024-03-02T14:14:00;13.50;78.90
31725;DHT22;18306;40.960;14.836;2024-03-02T14:16:27;13.50;78.90
31725;DHT22;18306;40.960;14.836;2024-03-02T14:18:54;13.60;78.20
31725;DHT22;18306;40.960;14.836;2024-03-02T14:21:22;13.50;78.60
31725;DHT22;18306;40.960;14.836;2024-03-02T14:23:50;13.50;78.60
31725;DHT22;18306;40.960;14.836;2024-03-02T14:26:20;13.40;78.80
31725;DHT22;18306;40.960;14.836;2024-03-02T14:28:47;13.30;79.40
31725;DHT22;18306;40.960;14.836;2024-03-02T14:31:14;13.20;80.20
31725;DHT22;18306;40.960;14.836;2024-03-02T14:33:41;13.20;81.10
31725;DHT22;18306;40.960;14.836;2024-03-02T14:36:09;13.10;81.70
31725;DHT22;18306;40.960;14.836;2024-03-02T14:38:36;13.10;82.40
31725;DHT22;18306;40.960;14.836;2024-03-02T14:41:04;13.10;83.30
31725;DHT22;18306;40.960;14.836;2024-03-02T14:43:32;13.00;84.50
31725;DHT22;18306;40.960;14.836;2024-03-02T14:45:59;13.00;85.10
31725;DHT22;18306;40.960;14.836;2024-03-02T14:48:26;13.00;85.10
31725;DHT22;18306;40.960;14.836;2024-03-02T14:50:53;13.00;84.90
31725;DHT22;18306;40.960;14.836;2024-03-02T14:53:20;13.00;85.80
31725;DHT22;18306;40.960;14.836;2024-03-02T14:55:47;13.00;86.50
31725;DHT22;18306;40.960;14.836;2024-03-02T14:58:14;13.00;86.40
31725;DHT22;18306;40.960;14.836;2024-03-02T15:00:41;13.10;86.00
31725;DHT22;18306;40.960;14.836;2024-03-02T15:03:09;13.10;85.80
31725;DHT22;18306;40.960;14.836;2024-03-02T15:05:39;13.20;85.70
31725;DHT22;18306;40.960;14.836;2024-03-02T15:08:06;13.20;85.30
31725;DHT22;18306;40.960;14.836;2024-03-02T15:10:34;13.10;86.50
31725;DHT22;18306;40.960;14.836;2024-03-02T15:13:01;13.20;86.40
31725;DHT22;18306;40.960;14.836;2024-03-02T15:15:28;13.20;86.00
31725;DHT22;18306;40.960;14.836;2024-03-02T15:17:55;13.20;86.50
31725;DHT22;18306;40.960;14.836;2024-03-02T15:20:22;13.30;85.90
31725;DHT22;18306;40.960;14.836;2024-03-02T15:22:49;13.30;86.10
31725;DHT22;18306;40.960;14.836;2024-03-02T15:25:17;13.40;86.20
31725;DHT22;18306;40.960;14.836;2024-03-02T15:27:44;13.40;86.00
31725;DHT22;18306;40.960;14.836;2024-03-02T15:30:11;13.40;86.00
31725;DHT22;18306;40.960;14.836;2024-03-02T15:32:38;13.40;86.00
31725;DHT22;18306;40.960;14.836;2024-03-02T15:35:06;13.50;85.80
31725;DHT22;18306;40.960;14.836;2024-03-02T15:37:33;13.40;85.40
31725;DHT22;18306;40.960;14.836;2024-03-02T15:40:00;13.30;85.60
31725;DHT22;18306;40.960;14.836;2024-03-02T15:42:37;13.30;85.60
31725;DHT22;18306;40.960;14.836;2024-03-02T15:45:08;13.20;85.50
31725;DHT22;18306;40.960;14.836;2024-03-02T15:47:36;13.20;85.50
31725;DHT22;18306;40.960;14.836;2024-03-02T15:50:04;13.10;85.80
31725;DHT22;18306;40.960;14.836;2024-03-02T15:52:31;13.10;86.00